createdAt,value
2022-08-02T00:01:34.298Z,18.73
2022-08-02T00:06:39.107Z,19.07
2022-08-02T00:11:44.232Z,18.93
2022-08-02T00:16:48.074Z,19.02
2022-08-02T00:21:52.423Z,18.53
2022-08-02T00:26:57.682Z,19.35
2022-08-02T00:32:01.639Z,19.57
2022-08-02T00:37:05.444Z,19.77
2022-08-02T00:42:11.642Z,19.83
2022-08-02T00:47:19.303Z,19.16
2022-08-02T00:52:24.167Z,19.09
2022-08-02T00:57:29.342Z,19.51
2022-08-02T01:02:33.233Z,19.10
2022-08-02T01:07:37.120Z,18.09
2022-08-02T01:12:42.765Z,18.40
2022-08-02T01:17:53.949Z,18.67
2022-08-02T01:23:10.609Z,18.20
2022-08-02T01:28:30.099Z,18.17
2022-08-02T01:33:41.035Z,18.08
2022-08-02T01:38:49.415Z,17.91
2022-08-02T01:43:59.085Z,17.59
2022-08-02T01:49:06.845Z,18.25
2022-08-02T01:54:16.221Z,18.55
2022-08-02T01:59:24.108Z,18.48
2022-08-02T02:04:30.413Z,18.51
2022-08-02T02:09:47.668Z,17.99
2022-08-02T02:14:57.298Z,17.77
2022-08-02T02:20:04.135Z,18.02
2022-08-02T02:25:11.258Z,17.84
2022-08-02T02:30:18.241Z,18.63
2022-08-02T02:35:23.760Z,17.97
2022-08-02T02:40:29.911Z,18.44
2022-08-02T02:45:37.351Z,17.92
2022-08-02T02:50:42.974Z,18.53
2022-08-02T02:56:02.646Z,18.02
2022-08-02T03:01:56.150Z,18.59
2022-08-02T03:06:54.348Z,18.23
2022-08-02T03:12:01.918Z,18.68
2022-08-02T03:17:10.315Z,18.09
2022-08-02T03:22:17.930Z,18.66
2022-08-02T03:27:25.180Z,18.77
2022-08-02T03:32:33.757Z,18.53
2022-08-02T03:37:41.653Z,17.43
2022-08-02T03:42:50.170Z,17.37
2022-08-02T03:48:00.404Z,17.27
2022-08-02T03:53:08.581Z,18.20
2022-08-02T03:58:28.008Z,18.07
2022-08-02T04:03:36.863Z,17.65
2022-08-02T04:08:43.984Z,17.14
2022-08-02T04:13:51.126Z,17.94
2022-08-02T04:19:03.558Z,18.56
2022-08-02T04:24:13.428Z,18.46
2022-08-02T04:29:27.697Z,19.22
2022-08-02T04:34:36.679Z,19.63
2022-08-02T04:39:44.608Z,19.83
2022-08-02T04:44:52.273Z,19.44
2022-08-02T04:50:01.058Z,20.06
2022-08-02T04:55:09.151Z,19.70
2022-08-02T05:00:22.916Z,19.87
2022-08-02T05:05:31.695Z,19.98
2022-08-02T05:10:39.163Z,20.55
2022-08-02T05:15:46.386Z,21.31
2022-08-02T05:20:58.139Z,21.46
2022-08-02T05:26:05.164Z,22.33
2022-08-02T05:31:13.321Z,21.85
2022-08-02T05:36:22.258Z,21.31
2022-08-02T05:41:29.309Z,21.27
2022-08-02T05:46:36.615Z,21.22
2022-08-02T05:51:54.838Z,21.86
2022-08-02T05:57:07.949Z,22.16
2022-08-02T06:02:30.316Z,22.64
2022-08-02T06:07:40.227Z,22.83
2022-08-02T06:12:52.149Z,23.59
2022-08-02T06:18:00.946Z,22.56
2022-08-02T06:23:13.701Z,21.37
2022-08-02T06:28:22.450Z,21.89
2022-08-02T06:33:29.492Z,21.57
2022-08-02T06:38:43.905Z,21.76
2022-08-02T06:44:26.279Z,22.74
2022-08-02T06:49:52.789Z,22.87
2022-08-02T06:55:09.107Z,22.97
2022-08-02T07:00:22.933Z,23.33
2022-08-02T07:05:40.186Z,24.87
2022-08-02T07:11:01.016Z,24.14
2022-08-02T07:16:21.083Z,23.56
2022-08-02T07:21:57.124Z,24.57
2022-08-02T07:27:23.678Z,23.66
2022-08-02T07:32:35.635Z,22.89
2022-08-02T07:37:58.029Z,23.29
2022-08-02T07:43:14.152Z,23.06
2022-08-02T07:48:24.410Z,23.27
2022-08-02T07:53:50.916Z,23.92
2022-08-02T07:59:00.411Z,23.03
2022-08-02T08:04:08.121Z,24.33
2022-08-02T08:09:15.614Z,23.33
2022-08-02T08:14:24.009Z,23.61
2022-08-02T08:19:50.437Z,23.26
2022-08-02T08:24:58.337Z,22.54
2022-08-02T08:30:10.861Z,23.31
2022-08-02T08:35:18.377Z,22.61
2022-08-02T08:40:28.170Z,22.76
2022-08-02T08:45:36.630Z,22.34
2022-08-02T08:50:52.715Z,22.93
2022-08-02T08:56:00.179Z,22.30
2022-08-02T09:01:11.676Z,23.11
2022-08-02T09:06:18.402Z,23.02
2022-08-02T09:11:28.100Z,22.31
2022-08-02T09:16:38.639Z,22.36
2022-08-02T09:21:48.934Z,22.76
2022-08-02T09:26:56.238Z,23.06
2022-08-02T09:32:07.067Z,23.45
2022-08-02T09:37:25.904Z,23.70
2022-08-02T09:42:32.372Z,23.53
2022-08-02T09:47:40.344Z,23.48
2022-08-02T09:52:47.747Z,22.87
2022-08-02T09:57:55.416Z,22.70
2022-08-02T10:03:21.939Z,22.81
2022-08-02T10:08:33.019Z,22.75
2022-08-02T10:13:40.798Z,22.64
2022-08-02T10:18:49.487Z,22.84
2022-08-02T10:24:02.700Z,22.71
2022-08-02T10:29:11.914Z,23.69
2022-08-02T10:34:31.626Z,23.64
2022-08-02T10:39:42.599Z,22.84
2022-08-02T10:44:49.039Z,22.54
2022-08-02T10:49:58.879Z,23.02
2022-08-02T10:55:22.399Z,22.94
2022-08-02T11:00:31.043Z,22.82
2022-08-02T11:05:42.697Z,23.16
2022-08-02T11:10:50.982Z,22.97
2022-08-02T11:16:01.892Z,23.40
2022-08-02T11:21:26.991Z,23.21
2022-08-02T11:26:55.255Z,24.48
2022-08-02T11:32:03.084Z,25.45
2022-08-02T11:37:12.135Z,24.43
2022-08-02T11:42:19.243Z,23.83
2022-08-02T11:47:26.434Z,24.33
2022-08-02T11:52:38.121Z,23.67
2022-08-02T11:58:03.212Z,23.23
2022-08-02T12:03:14.390Z,24.02
2022-08-02T12:08:28.630Z,25.13
2022-08-02T12:13:56.893Z,25.25
2022-08-02T12:19:23.921Z,24.94
2022-08-02T12:24:32.477Z,25.60
2022-08-02T12:29:58.573Z,25.17
2022-08-02T12:35:26.671Z,26.63
2022-08-02T12:40:36.142Z,25.97
2022-08-02T12:45:53.710Z,28.03
2022-08-02T12:51:00.882Z,27.10
2022-08-02T12:56:12.839Z,27.69
2022-08-02T13:01:34.599Z,27.55
2022-08-02T13:07:13.372Z,27.00
2022-08-02T13:12:37.267Z,27.05
2022-08-02T13:17:43.725Z,28.84
2022-08-02T13:22:52.864Z,27.08
2022-08-02T13:27:58.849Z,25.96
2022-08-02T13:33:02.796Z,27.23
2022-08-02T13:38:06.723Z,29.88
2022-08-02T13:43:52.826Z,28.39
2022-08-02T13:48:59.394Z,28.75
2022-08-02T13:54:03.112Z,27.90
2022-08-02T13:59:54.898Z,29.77
2022-08-02T14:04:32.957Z,30.16
2022-08-02T14:09:36.958Z,30.98
2022-08-02T14:14:42.621Z,30.29
2022-08-02T14:19:49.315Z,29.94
2022-08-02T14:24:53.479Z,28.34
2022-08-02T14:29:58.855Z,28.74
2022-08-02T14:35:02.885Z,30.01
2022-08-02T14:40:27.724Z,29.31
2022-08-02T14:45:40.128Z,29.35
2022-08-02T14:50:45.383Z,27.25
2022-08-02T14:55:49.608Z,26.95
2022-08-02T15:00:55.087Z,28.80
2022-08-02T15:05:59.391Z,28.78
2022-08-02T15:11:03.824Z,28.82
2022-08-02T15:16:10.450Z,26.06
2022-08-02T15:21:36.595Z,24.66
2022-08-02T15:26:39.968Z,24.89
2022-08-02T15:31:45.413Z,26.25
2022-08-02T15:36:49.866Z,28.01
2022-08-02T15:41:54.278Z,26.61
2022-08-02T15:47:00.413Z,26.54
2022-08-02T15:52:05.266Z,25.98
2022-08-02T15:57:09.309Z,24.99
2022-08-02T16:02:16.149Z,24.68
2022-08-02T16:07:20.526Z,25.37
2022-08-02T16:12:32.373Z,24.56
2022-08-02T16:17:51.554Z,24.76
2022-08-02T16:22:58.278Z,24.09
2022-08-02T16:28:07.364Z,24.07
2022-08-02T16:33:13.309Z,24.38
2022-08-02T16:38:16.875Z,24.45
2022-08-02T16:43:20.902Z,25.09
2022-08-02T16:48:25.907Z,25.41
2022-08-02T16:53:36.237Z,25.35
2022-08-02T16:58:41.092Z,24.48
2022-08-02T17:03:56.317Z,24.45
2022-08-02T17:09:02.106Z,24.51
2022-08-02T17:20:37.677Z,24.62
2022-08-02T17:25:43.330Z,24.80
2022-08-02T17:30:56.589Z,24.08
2022-08-02T17:36:01.971Z,24.25
2022-08-02T17:41:06.460Z,24.10
2022-08-02T17:46:19.206Z,24.28
2022-08-02T17:52:15.338Z,24.09
2022-08-02T17:56:50.956Z,24.28
2022-08-02T18:01:56.467Z,23.74
2022-08-02T18:07:09.850Z,23.93
2022-08-02T18:12:15.580Z,23.77
2022-08-02T18:17:25.002Z,23.51
2022-08-02T18:22:34.431Z,23.04
2022-08-02T18:27:38.979Z,23.24
2022-08-02T18:33:57.333Z,23.24
2022-08-02T18:38:11.750Z,23.29
2022-08-02T18:43:15.772Z,22.53
2022-08-02T18:48:20.317Z,22.55
2022-08-02T18:58:52.121Z,21.98
2022-08-02T19:03:56.283Z,21.15
2022-08-02T19:09:12.761Z,21.59
2022-08-02T19:14:24.096Z,20.98
2022-08-02T19:19:31.892Z,20.29
2022-08-02T19:24:38.593Z,20.61
2022-08-02T19:29:53.415Z,20.46
2022-08-02T19:35:00.263Z,20.05
2022-08-02T19:40:07.948Z,20.48
2022-08-02T19:45:14.061Z,19.74
2022-08-02T19:50:19.539Z,19.78
2022-08-02T19:55:58.305Z,21.00
2022-08-02T20:01:20.687Z,21.46
2022-08-02T20:06:34.750Z,20.95
2022-08-02T20:11:40.624Z,20.41
2022-08-02T20:16:46.016Z,21.30
2022-08-02T20:21:55.501Z,21.23
2022-08-02T20:27:04.600Z,21.15
2022-08-02T20:32:08.268Z,20.05
2022-08-02T20:38:01.088Z,19.57
2022-08-02T20:42:37.547Z,19.11
2022-08-02T20:47:43.233Z,19.05
2022-08-02T20:52:53.528Z,20.12
2022-08-02T20:58:01.086Z,20.40
2022-08-02T21:03:08.880Z,19.37
2022-08-02T21:08:15.133Z,19.96
2022-08-02T21:13:24.097Z,20.38
2022-08-02T21:18:40.194Z,20.41
2022-08-02T21:23:48.940Z,20.57
2022-08-02T21:29:03.047Z,20.73
2022-08-02T21:34:22.000Z,20.33
2022-08-02T21:39:32.320Z,20.66
2022-08-02T21:44:37.405Z,20.12
2022-08-02T21:50:13.238Z,20.40
2022-08-02T21:55:09.114Z,20.51
2022-08-02T22:00:22.543Z,20.70
2022-08-02T22:05:37.317Z,21.17
2022-08-02T22:10:55.187Z,20.06
2022-08-02T22:16:02.505Z,19.94
2022-08-02T22:21:14.210Z,20.08
2022-08-02T22:26:19.199Z,20.24
2022-08-02T22:31:40.874Z,19.93
2022-08-02T22:36:46.032Z,20.22
2022-08-02T22:42:05.949Z,20.47
2022-08-02T22:47:14.717Z,20.53
2022-08-02T22:52:36.054Z,20.20
2022-08-02T22:57:56.792Z,20.17
2022-08-02T22:58:57.558Z,22.77
2022-08-02T23:03:02.178Z,19.21
2022-08-02T23:08:07.052Z,19.71
2022-08-02T23:13:10.864Z,19.30
2022-08-02T23:18:33.267Z,19.86
2022-08-02T23:23:37.304Z,19.76
2022-08-02T23:28:41.172Z,19.89
2022-08-02T23:34:03.541Z,19.24
2022-08-02T23:39:08.616Z,19.40
2022-08-02T23:44:14.247Z,19.35
2022-08-02T23:49:20.741Z,19.47
2022-08-02T23:54:25.371Z,19.59
2022-08-02T23:59:28.996Z,18.52
